sensor_id;sensor_type;location;lat;lon;timestamp;P1;durP1;ratioP1;P2;durP2;ratioP2
71435;SDS011;59251;51.326;12.370;2023-04-24T00:01:26;5.00;;;1.23;;
71435;SDS011;59251;51.326;12.370;2023-04-24T00:03:51;4.60;;;1.10;;
71435;SDS011;59251;51.326;12.370;2023-04-24T00:06:17;4.73;;;1.30;;
71435;SDS011;59251;51.326;12.370;2023-04-24T00:08:42;6.83;;;1.13;;
71435;SDS011;59251;51.326;12.370;2023-04-24T00:11:08;4.50;;;1.10;;
71435;SDS011;59251;51.326;12.370;2023-04-24T00:13:34;7.60;;;1.50;;
71435;SDS011;59251;51.326;12.370;2023-04-24T00:15:59;4.70;;;1.20;;
71435;SDS011;59251;51.326;12.370;2023-04-24T00:18:25;5.97;;;1.40;;
71435;SDS011;59251;51.326;12.370;2023-04-24T00:20:50;7.43;;;1.40;;
71435;SDS011;59251;51.326;12.370;2023-04-24T00:23:16;5.03;;;1.43;;
71435;SDS011;59251;51.326;12.370;2023-04-24T00:25:41;5.40;;;1.27;;
71435;SDS011;59251;51.326;12.370;2023-04-24T00:28:07;5.63;;;1.50;;
71435;SDS011;59251;51.326;12.370;2023-04-24T00:30:32;5.27;;;1.53;;
71435;SDS011;59251;51.326;12.370;2023-04-24T00:32:57;5.60;;;1.27;;
71435;SDS011;59251;51.326;12.370;2023-04-24T00:35:23;5.43;;;1.50;;
71435;SDS011;59251;51.326;12.370;2023-04-24T00:37:49;5.23;;;1.47;;
71435;SDS011;59251;51.326;12.370;2023-04-24T00:40:14;7.65;;;1.45;;
71435;SDS011;59251;51.326;12.370;2023-04-24T00:42:41;4.90;;;1.10;;
71435;SDS011;59251;51.326;12.370;2023-04-24T00:45:08;6.30;;;1.25;;
71435;SDS011;59251;51.326;12.370;2023-04-24T00:47:33;5.17;;;1.30;;
71435;SDS011;59251;51.326;12.370;2023-04-24T00:50:01;5.07;;;1.40;;
71435;SDS011;59251;51.326;12.370;2023-04-24T00:52:27;5.70;;;1.40;;
71435;SDS011;59251;51.326;12.370;2023-04-24T00:54:53;5.85;;;1.20;;
71435;SDS011;59251;51.326;12.370;2023-04-24T00:57:18;4.50;;;1.00;;
71435;SDS011;59251;51.326;12.370;2023-04-24T00:59:44;4.90;;;1.30;;
71435;SDS011;59251;51.326;12.370;2023-04-24T01:02:10;5.30;;;1.15;;
71435;SDS011;59251;51.326;12.370;2023-04-24T01:04:36;4.60;;;1.20;;
71435;SDS011;59251;51.326;12.370;2023-04-24T01:07:02;5.53;;;1.10;;
71435;SDS011;59251;51.326;12.370;2023-04-24T01:09:29;4.32;;;1.00;;
71435;SDS011;59251;51.326;12.370;2023-04-24T01:11:54;5.10;;;1.10;;
71435;SDS011;59251;51.326;12.370;2023-04-24T01:14:21;8.18;;;1.25;;
71435;SDS011;59251;51.326;12.370;2023-04-24T01:16:47;4.88;;;0.77;;
71435;SDS011;59251;51.326;12.370;2023-04-24T01:19:12;4.83;;;1.20;;
71435;SDS011;59251;51.326;12.370;2023-04-24T01:21:40;4.32;;;0.90;;
71435;SDS011;59251;51.326;12.370;2023-04-24T01:24:07;4.45;;;0.95;;
71435;SDS011;59251;51.326;12.370;2023-04-24T01:26:33;4.77;;;0.90;;
71435;SDS011;59251;51.326;12.370;2023-04-24T01:28:58;5.03;;;0.80;;
71435;SDS011;59251;51.326;12.370;2023-04-24T01:31:24;4.43;;;0.67;;
71435;SDS011;59251;51.326;12.370;2023-04-24T01:33:50;4.50;;;0.80;;
71435;SDS011;59251;51.326;12.370;2023-04-24T01:36:16;5.07;;;1.00;;
71435;SDS011;59251;51.326;12.370;2023-04-24T01:38:43;4.90;;;1.00;;
71435;SDS011;59251;51.326;12.370;2023-04-24T01:41:08;5.72;;;0.90;;
71435;SDS011;59251;51.326;12.370;2023-04-24T01:43:35;8.88;;;0.90;;
71435;SDS011;59251;51.326;12.370;2023-04-24T01:46:00;4.93;;;1.10;;
71435;SDS011;59251;51.326;12.370;2023-04-24T01:48:26;4.22;;;0.75;;
71435;SDS011;59251;51.326;12.370;2023-04-24T01:50:52;4.93;;;0.80;;
71435;SDS011;59251;51.326;12.370;2023-04-24T01:53:17;4.30;;;0.90;;
71435;SDS011;59251;51.326;12.370;2023-04-24T01:55:42;3.90;;;0.70;;
71435;SDS011;59251;51.326;12.370;2023-04-24T01:58:08;4.70;;;0.90;;
71435;SDS011;59251;51.326;12.370;2023-04-24T02:00:33;4.60;;;0.83;;
71435;SDS011;59251;51.326;12.370;2023-04-24T02:02:59;4.13;;;0.70;;
71435;SDS011;59251;51.326;12.370;2023-04-24T02:05:26;4.55;;;0.70;;
71435;SDS011;59251;51.326;12.370;2023-04-24T02:07:52;3.92;;;0.70;;
71435;SDS011;59251;51.326;12.370;2023-04-24T02:10:17;5.35;;;0.85;;
71435;SDS011;59251;51.326;12.370;2023-04-24T02:12:43;5.13;;;0.83;;
71435;SDS011;59251;51.326;12.370;2023-04-24T02:15:08;4.73;;;0.80;;
71435;SDS011;59251;51.326;12.370;2023-04-24T02:17:34;4.65;;;0.82;;
71435;SDS011;59251;51.326;12.370;2023-04-24T02:19:59;4.20;;;0.67;;
71435;SDS011;59251;51.326;12.370;2023-04-24T02:22:25;5.23;;;0.80;;
71435;SDS011;59251;51.326;12.370;2023-04-24T02:24:50;4.70;;;0.70;;
71435;SDS011;59251;51.326;12.370;2023-04-24T02:27:16;5.05;;;0.80;;
71435;SDS011;59251;51.326;12.370;2023-04-24T02:29:41;6.63;;;1.17;;
71435;SDS011;59251;51.326;12.370;2023-04-24T02:32:06;5.83;;;0.73;;
71435;SDS011;59251;51.326;12.370;2023-04-24T02:34:34;7.13;;;0.95;;
71435;SDS011;59251;51.326;12.370;2023-04-24T02:36:59;5.53;;;0.80;;
71435;SDS011;59251;51.326;12.370;2023-04-24T02:39:25;7.40;;;1.43;;
71435;SDS011;59251;51.326;12.370;2023-04-24T02:41:50;4.60;;;0.80;;
71435;SDS011;59251;51.326;12.370;2023-04-24T02:44:15;4.50;;;0.90;;
71435;SDS011;59251;51.326;12.370;2023-04-24T02:46:42;5.00;;;1.00;;
71435;SDS011;59251;51.326;12.370;2023-04-24T02:49:08;5.55;;;1.05;;
71435;SDS011;59251;51.326;12.370;2023-04-24T02:51:33;5.43;;;1.07;;
71435;SDS011;59251;51.326;12.370;2023-04-24T02:53:59;5.93;;;0.70;;
71435;SDS011;59251;51.326;12.370;2023-04-24T02:56:24;5.75;;;1.05;;
71435;SDS011;59251;51.326;12.370;2023-04-24T02:58:50;4.60;;;1.10;;
71435;SDS011;59251;51.326;12.370;2023-04-24T03:01:15;5.63;;;0.90;;
71435;SDS011;59251;51.326;12.370;2023-04-24T03:03:40;8.23;;;1.00;;
71435;SDS011;59251;51.326;12.370;2023-04-24T03:06:06;4.47;;;0.97;;
71435;SDS011;59251;51.326;12.370;2023-04-24T03:08:33;4.28;;;0.90;;
71435;SDS011;59251;51.326;12.370;2023-04-24T03:10:58;4.63;;;0.80;;
71435;SDS011;59251;51.326;12.370;2023-04-24T03:13:23;3.95;;;0.80;;
71435;SDS011;59251;51.326;12.370;2023-04-24T03:15:49;5.27;;;0.90;;
71435;SDS011;59251;51.326;12.370;2023-04-24T03:18:15;5.28;;;1.00;;
71435;SDS011;59251;51.326;12.370;2023-04-24T03:20:40;4.13;;;0.70;;
71435;SDS011;59251;51.326;12.370;2023-04-24T03:23:06;4.83;;;0.90;;
71435;SDS011;59251;51.326;12.370;2023-04-24T03:25:31;4.23;;;0.73;;
71435;SDS011;59251;51.326;12.370;2023-04-24T03:27:56;4.20;;;0.80;;
71435;SDS011;59251;51.326;12.370;2023-04-24T03:30:22;4.20;;;0.80;;
71435;SDS011;59251;51.326;12.370;2023-04-24T03:32:47;4.55;;;0.90;;
71435;SDS011;59251;51.326;12.370;2023-04-24T03:35:13;4.70;;;0.82;;
71435;SDS011;59251;51.326;12.370;2023-04-24T03:37:38;3.47;;;0.60;;
71435;SDS011;59251;51.326;12.370;2023-04-24T03:40:03;5.40;;;0.83;;
71435;SDS011;59251;51.326;12.370;2023-04-24T03:42:30;5.20;;;0.82;;
71435;SDS011;59251;51.326;12.370;2023-04-24T03:44:56;6.43;;;0.93;;
71435;SDS011;59251;51.326;12.370;2023-04-24T03:47:21;5.47;;;1.10;;
71435;SDS011;59251;51.326;12.370;2023-04-24T03:49:46;4.67;;;0.80;;
71435;SDS011;59251;51.326;12.370;2023-04-24T03:52:12;5.37;;;1.47;;
71435;SDS011;59251;51.326;12.370;2023-04-24T03:54:37;4.60;;;1.00;;
71435;SDS011;59251;51.326;12.370;2023-04-24T03:57:02;4.00;;;0.90;;
71435;SDS011;59251;51.326;12.370;2023-04-24T03:59:29;7.70;;;1.65;;
71435;SDS011;59251;51.326;12.370;2023-04-24T04:01:55;7.70;;;1.15;;
71435;SDS011;59251;51.326;12.370;2023-04-24T04:04:20;5.67;;;1.00;;
71435;SDS011;59251;51.326;12.370;2023-04-24T04:06:45;5.90;;;1.00;;
71435;SDS011;59251;51.326;12.370;2023-04-24T04:09:11;7.27;;;0.97;;
71435;SDS011;59251;51.326;12.370;2023-04-24T04:11:37;5.13;;;0.77;;
71435;SDS011;59251;51.326;12.370;2023-04-24T04:14:02;5.57;;;0.83;;
71435;SDS011;59251;51.326;12.370;2023-04-24T04:16:28;5.30;;;0.80;;
71435;SDS011;59251;51.326;12.370;2023-04-24T04:18:53;4.15;;;0.80;;
71435;SDS011;59251;51.326;12.370;2023-04-24T04:21:19;5.70;;;0.80;;
71435;SDS011;59251;51.326;12.370;2023-04-24T04:23:44;4.80;;;0.97;;
71435;SDS011;59251;51.326;12.370;2023-04-24T04:26:10;5.00;;;1.00;;
71435;SDS011;59251;51.326;12.370;2023-04-24T04:28:37;5.78;;;0.88;;
71435;SDS011;59251;51.326;12.370;2023-04-24T04:31:04;4.70;;;1.05;;
71435;SDS011;59251;51.326;12.370;2023-04-24T04:33:29;4.30;;;0.90;;
71435;SDS011;59251;51.326;12.370;2023-04-24T04:35:54;4.40;;;0.80;;
71435;SDS011;59251;51.326;12.370;2023-04-24T04:38:21;5.22;;;0.88;;
71435;SDS011;59251;51.326;12.370;2023-04-24T04:40:47;5.43;;;0.85;;
71435;SDS011;59251;51.326;12.370;2023-04-24T04:43:13;5.77;;;1.53;;
71435;SDS011;59251;51.326;12.370;2023-04-24T04:45:39;4.95;;;0.98;;
71435;SDS011;59251;51.326;12.370;2023-04-24T04:48:06;6.53;;;1.90;;
71435;SDS011;59251;51.326;12.370;2023-04-24T04:50:33;6.05;;;1.00;;
71435;SDS011;59251;51.326;12.370;2023-04-24T04:52:59;6.00;;;0.85;;
71435;SDS011;59251;51.326;12.370;2023-04-24T04:55:24;6.53;;;0.83;;
71435;SDS011;59251;51.326;12.370;2023-04-24T04:57:50;4.40;;;0.80;;
71435;SDS011;59251;51.326;12.370;2023-04-24T05:00:16;4.70;;;0.80;;
71435;SDS011;59251;51.326;12.370;2023-04-24T05:02:42;5.95;;;1.00;;
71435;SDS011;59251;51.326;12.370;2023-04-24T05:05:07;4.50;;;0.90;;
71435;SDS011;59251;51.326;12.370;2023-04-24T05:07:33;5.47;;;1.00;;
71435;SDS011;59251;51.326;12.370;2023-04-24T05:09:59;5.80;;;1.00;;
71435;SDS011;59251;51.326;12.370;2023-04-24T05:12:24;4.50;;;0.80;;
71435;SDS011;59251;51.326;12.370;2023-04-24T05:14:50;4.67;;;0.83;;
71435;SDS011;59251;51.326;12.370;2023-04-24T05:17:15;4.57;;;0.95;;
71435;SDS011;59251;51.326;12.370;2023-04-24T05:19:41;3.97;;;0.70;;
71435;SDS011;59251;51.326;12.370;2023-04-24T05:22:07;6.82;;;1.13;;
71435;SDS011;59251;51.326;12.370;2023-04-24T05:24:32;4.80;;;0.90;;
71435;SDS011;59251;51.326;12.370;2023-04-24T05:26:58;6.15;;;0.90;;
71435;SDS011;59251;51.326;12.370;2023-04-24T05:29:24;4.47;;;0.97;;
71435;SDS011;59251;51.326;12.370;2023-04-24T05:31:51;5.25;;;0.90;;
71435;SDS011;59251;51.326;12.370;2023-04-24T05:34:16;7.50;;;1.10;;
71435;SDS011;59251;51.326;12.370;2023-04-24T05:36:42;4.68;;;0.80;;
71435;SDS011;59251;51.326;12.370;2023-04-24T05:39:07;6.23;;;0.80;;
71435;SDS011;59251;51.326;12.370;2023-04-24T05:41:33;5.07;;;1.05;;
71435;SDS011;59251;51.326;12.370;2023-04-24T05:43:59;9.13;;;1.70;;
71435;SDS011;59251;51.326;12.370;2023-04-24T05:46:24;5.63;;;1.30;;
71435;SDS011;59251;51.326;12.370;2023-04-24T05:48:50;8.33;;;0.90;;
71435;SDS011;59251;51.326;12.370;2023-04-24T05:51:15;5.40;;;1.00;;
71435;SDS011;59251;51.326;12.370;2023-04-24T05:53:41;4.67;;;0.90;;
71435;SDS011;59251;51.326;12.370;2023-04-24T05:56:06;5.67;;;0.80;;
71435;SDS011;59251;51.326;12.370;2023-04-24T05:58:32;6.03;;;1.00;;
71435;SDS011;59251;51.326;12.370;2023-04-24T06:00:57;6.00;;;0.90;;
71435;SDS011;59251;51.326;12.370;2023-04-24T06:03:23;6.40;;;0.90;;
71435;SDS011;59251;51.326;12.370;2023-04-24T06:05:49;6.80;;;0.83;;
71435;SDS011;59251;51.326;12.370;2023-04-24T06:08:16;4.53;;;0.90;;
71435;SDS011;59251;51.326;12.370;2023-04-24T06:10:41;4.77;;;0.90;;
71435;SDS011;59251;51.326;12.370;2023-04-24T06:13:07;4.75;;;0.82;;
71435;SDS011;59251;51.326;12.370;2023-04-24T06:15:32;4.60;;;0.83;;
71435;SDS011;59251;51.326;12.370;2023-04-24T06:17:58;8.35;;;1.02;;
71435;SDS011;59251;51.326;12.370;2023-04-24T06:20:24;4.65;;;0.85;;
71435;SDS011;59251;51.326;12.370;2023-04-24T06:22:49;5.60;;;0.90;;
71435;SDS011;59251;51.326;12.370;2023-04-24T06:25:15;5.32;;;1.00;;
71435;SDS011;59251;51.326;12.370;2023-04-24T06:27:40;4.97;;;0.80;;
71435;SDS011;59251;51.326;12.370;2023-04-24T06:30:06;4.43;;;0.77;;
71435;SDS011;59251;51.326;12.370;2023-04-24T06:32:32;5.78;;;0.90;;
71435;SDS011;59251;51.326;12.370;2023-04-24T06:34:57;5.50;;;0.93;;
71435;SDS011;59251;51.326;12.370;2023-04-24T06:37:23;4.60;;;0.90;;
71435;SDS011;59251;51.326;12.370;2023-04-24T06:39:48;4.30;;;0.80;;
71435;SDS011;59251;51.326;12.370;2023-04-24T06:42:14;4.90;;;0.70;;
71435;SDS011;59251;51.326;12.370;2023-04-24T06:44:39;6.10;;;0.90;;
71435;SDS011;59251;51.326;12.370;2023-04-24T06:47:08;6.15;;;0.90;;
71435;SDS011;59251;51.326;12.370;2023-04-24T06:49:34;6.85;;;0.90;;
71435;SDS011;59251;51.326;12.370;2023-04-24T06:52:00;6.00;;;0.95;;
71435;SDS011;59251;51.326;12.370;2023-04-24T06:54:25;5.35;;;0.90;;
71435;SDS011;59251;51.326;12.370;2023-04-24T06:56:51;6.20;;;0.83;;
71435;SDS011;59251;51.326;12.370;2023-04-24T06:59:17;4.90;;;0.90;;
71435;SDS011;59251;51.326;12.370;2023-04-24T07:01:42;5.38;;;0.80;;
71435;SDS011;59251;51.326;12.370;2023-04-24T07:04:07;5.53;;;0.97;;
71435;SDS011;59251;51.326;12.370;2023-04-24T07:06:33;6.03;;;0.80;;
71435;SDS011;59251;51.326;12.370;2023-04-24T07:08:58;5.50;;;1.00;;
71435;SDS011;59251;51.326;12.370;2023-04-24T07:11:25;9.43;;;1.52;;
71435;SDS011;59251;51.326;12.370;2023-04-24T07:13:54;6.70;;;1.10;;
71435;SDS011;59251;51.326;12.370;2023-04-24T07:16:19;7.30;;;0.80;;
71435;SDS011;59251;51.326;12.370;2023-04-24T07:18:45;5.67;;;1.03;;
71435;SDS011;59251;51.326;12.370;2023-04-24T07:21:10;6.37;;;0.80;;
71435;SDS011;59251;51.326;12.370;2023-04-24T07:23:36;4.97;;;0.85;;
71435;SDS011;59251;51.326;12.370;2023-04-24T07:26:01;5.07;;;0.60;;
71435;SDS011;59251;51.326;12.370;2023-04-24T07:28:27;8.98;;;0.85;;
71435;SDS011;59251;51.326;12.370;2023-04-24T07:30:56;5.53;;;0.77;;
71435;SDS011;59251;51.326;12.370;2023-04-24T07:33:22;9.73;;;1.00;;
71435;SDS011;59251;51.326;12.370;2023-04-24T07:35:47;4.47;;;0.80;;
71435;SDS011;59251;51.326;12.370;2023-04-24T07:38:13;4.27;;;0.70;;
71435;SDS011;59251;51.326;12.370;2023-04-24T07:40:38;5.80;;;0.87;;
71435;SDS011;59251;51.326;12.370;2023-04-24T07:43:03;4.55;;;0.80;;
71435;SDS011;59251;51.326;12.370;2023-04-24T07:45:29;6.05;;;0.70;;
71435;SDS011;59251;51.326;12.370;2023-04-24T07:47:56;6.47;;;0.90;;
71435;SDS011;59251;51.326;12.370;2023-04-24T07:50:21;7.22;;;0.90;;
71435;SDS011;59251;51.326;12.370;2023-04-24T07:52:47;6.23;;;0.73;;
71435;SDS011;59251;51.326;12.370;2023-04-24T07:55:12;4.13;;;0.60;;
71435;SDS011;59251;51.326;12.370;2023-04-24T07:57:38;5.40;;;0.98;;
71435;SDS011;59251;51.326;12.370;2023-04-24T08:00:03;3.70;;;0.50;;
71435;SDS011;59251;51.326;12.370;2023-04-24T08:02:30;5.55;;;0.57;;
71435;SDS011;59251;51.326;12.370;2023-04-24T08:04:56;4.55;;;0.55;;
71435;SDS011;59251;51.326;12.370;2023-04-24T08:07:21;5.83;;;0.90;;
71435;SDS011;59251;51.326;12.370;2023-04-24T08:09:47;5.72;;;0.70;;
71435;SDS011;59251;51.326;12.370;2023-04-24T08:12:13;5.17;;;0.80;;
71435;SDS011;59251;51.326;12.370;2023-04-24T08:14:38;5.63;;;0.60;;
71435;SDS011;59251;51.326;12.370;2023-04-24T08:17:04;4.53;;;0.60;;
71435;SDS011;59251;51.326;12.370;2023-04-24T08:19:29;3.67;;;0.57;;
71435;SDS011;59251;51.326;12.370;2023-04-24T08:21:55;4.47;;;0.60;;
71435;SDS011;59251;51.326;12.370;2023-04-24T08:24:22;6.37;;;0.90;;
71435;SDS011;59251;51.326;12.370;2023-04-24T08:26:48;4.28;;;0.80;;
71435;SDS011;59251;51.326;12.370;2023-04-24T08:29:15;6.35;;;0.85;;
71435;SDS011;59251;51.326;12.370;2023-04-24T08:31:41;5.43;;;0.70;;
71435;SDS011;59251;51.326;12.370;2023-04-24T08:34:06;4.20;;;0.53;;
71435;SDS011;59251;51.326;12.370;2023-04-24T08:36:31;3.33;;;0.60;;
71435;SDS011;59251;51.326;12.370;2023-04-24T08:38:57;4.33;;;0.43;;
71435;SDS011;59251;51.326;12.370;2023-04-24T08:41:22;4.80;;;0.60;;
71435;SDS011;59251;51.326;12.370;2023-04-24T08:43:51;3.90;;;0.50;;
71435;SDS011;59251;51.326;12.370;2023-04-24T08:46:16;3.83;;;0.60;;
71435;SDS011;59251;51.326;12.370;2023-04-24T08:48:44;3.03;;;0.30;;
71435;SDS011;59251;51.326;12.370;2023-04-24T08:51:10;5.22;;;0.70;;
71435;SDS011;59251;51.326;12.370;2023-04-24T08:53:35;3.77;;;0.40;;
71435;SDS011;59251;51.326;12.370;2023-04-24T08:56:02;3.72;;;0.47;;
71435;SDS011;59251;51.326;12.370;2023-04-24T08:58:27;4.38;;;0.57;;
71435;SDS011;59251;51.326;12.370;2023-04-24T09:00:57;4.90;;;0.40;;
71435;SDS011;59251;51.326;12.370;2023-04-24T09:03:23;2.97;;;0.40;;
71435;SDS011;59251;51.326;12.370;2023-04-24T09:05:50;4.40;;;0.52;;
71435;SDS011;59251;51.326;12.370;2023-04-24T09:08:18;4.20;;;0.60;;
71435;SDS011;59251;51.326;12.370;2023-04-24T09:10:44;3.95;;;0.43;;
71435;SDS011;59251;51.326;12.370;2023-04-24T09:13:09;5.37;;;0.83;;
71435;SDS011;59251;51.326;12.370;2023-04-24T09:15:36;4.35;;;0.57;;
71435;SDS011;59251;51.326;12.370;2023-04-24T09:18:02;3.00;;;0.40;;
71435;SDS011;59251;51.326;12.370;2023-04-24T09:20:27;3.70;;;0.40;;
71435;SDS011;59251;51.326;12.370;2023-04-24T09:22:54;3.30;;;0.50;;
71435;SDS011;59251;51.326;12.370;2023-04-24T09:25:24;4.10;;;0.60;;
71435;SDS011;59251;51.326;12.370;2023-04-24T09:27:59;3.80;;;0.70;;
71435;SDS011;59251;51.326;12.370;2023-04-24T09:30:27;3.63;;;0.43;;
71435;SDS011;59251;51.326;12.370;2023-04-24T09:33:12;4.70;;;0.50;;
71435;SDS011;59251;51.326;12.370;2023-04-24T09:35:41;2.00;;;0.30;;
71435;SDS011;59251;51.326;12.370;2023-04-24T09:38:10;2.75;;;0.40;;
71435;SDS011;59251;51.326;12.370;2023-04-24T09:40:36;5.17;;;0.60;;
71435;SDS011;59251;51.326;12.370;2023-04-24T09:43:01;4.05;;;0.40;;
71435;SDS011;59251;51.326;12.370;2023-04-24T09:45:28;3.97;;;0.50;;
71435;SDS011;59251;51.326;12.370;2023-04-24T09:47:59;3.83;;;0.57;;
71435;SDS011;59251;51.326;12.370;2023-04-24T09:50:25;3.43;;;0.60;;
71435;SDS011;59251;51.326;12.370;2023-04-24T09:52:57;3.42;;;0.50;;
71435;SDS011;59251;51.326;12.370;2023-04-24T09:55:25;3.88;;;0.50;;
71435;SDS011;59251;51.326;12.370;2023-04-24T09:57:52;4.70;;;0.50;;
71435;SDS011;59251;51.326;12.370;2023-04-24T10:00:23;3.17;;;0.40;;
71435;SDS011;59251;51.326;12.370;2023-04-24T10:02:57;2.38;;;0.30;;
71435;SDS011;59251;51.326;12.370;2023-04-24T10:05:24;2.72;;;0.43;;
71435;SDS011;59251;51.326;12.370;2023-04-24T10:07:55;4.30;;;0.60;;
71435;SDS011;59251;51.326;12.370;2023-04-24T10:10:22;3.75;;;0.60;;
71435;SDS011;59251;51.326;12.370;2023-04-24T10:12:47;4.60;;;0.73;;
71435;SDS011;59251;51.326;12.370;2023-04-24T10:15:14;4.80;;;0.50;;
71435;SDS011;59251;51.326;12.370;2023-04-24T10:17:41;4.13;;;0.50;;
71435;SDS011;59251;51.326;12.370;2023-04-24T10:20:07;3.50;;;0.60;;
71435;SDS011;59251;51.326;12.370;2023-04-24T10:22:33;4.63;;;0.60;;
71435;SDS011;59251;51.326;12.370;2023-04-24T10:24:59;3.40;;;0.60;;
71435;SDS011;59251;51.326;12.370;2023-04-24T10:27:24;4.37;;;0.60;;
71435;SDS011;59251;51.326;12.370;2023-04-24T10:29:52;5.40;;;0.57;;
71435;SDS011;59251;51.326;12.370;2023-04-24T10:32:18;3.60;;;0.50;;
71435;SDS011;59251;51.326;12.370;2023-04-24T10:34:43;3.40;;;0.40;;
71435;SDS011;59251;51.326;12.370;2023-04-24T10:37:09;4.50;;;0.43;;
71435;SDS011;59251;51.326;12.370;2023-04-24T10:39:34;5.37;;;0.50;;
71435;SDS011;59251;51.326;12.370;2023-04-24T10:42:02;3.50;;;0.40;;
71435;SDS011;59251;51.326;12.370;2023-04-24T10:44:40;4.75;;;0.52;;
71435;SDS011;59251;51.326;12.370;2023-04-24T10:47:05;4.87;;;0.60;;
71435;SDS011;59251;51.326;12.370;2023-04-24T10:49:37;4.32;;;0.82;;
71435;SDS011;59251;51.326;12.370;2023-04-24T10:52:03;4.73;;;0.70;;
71435;SDS011;59251;51.326;12.370;2023-04-24T10:54:36;4.97;;;0.60;;
71435;SDS011;59251;51.326;12.370;2023-04-24T10:59:44;5.30;;;0.93;;
71435;SDS011;59251;51.326;12.370;2023-04-24T11:02:10;3.13;;;0.47;;
71435;SDS011;59251;51.326;12.370;2023-04-24T11:04:35;5.17;;;0.67;;
71435;SDS011;59251;51.326;12.370;2023-04-24T11:07:04;3.43;;;0.50;;
71435;SDS011;59251;51.326;12.370;2023-04-24T11:09:30;4.50;;;0.70;;
71435;SDS011;59251;51.326;12.370;2023-04-24T11:12:03;4.13;;;0.65;;
71435;SDS011;59251;51.326;12.370;2023-04-24T11:17:30;3.90;;;0.70;;
71435;SDS011;59251;51.326;12.370;2023-04-24T11:20:11;5.10;;;0.60;;
71435;SDS011;59251;51.326;12.370;2023-04-24T11:22:41;5.00;;;0.70;;
71435;SDS011;59251;51.326;12.370;2023-04-24T11:25:06;5.13;;;1.00;;
71435;SDS011;59251;51.326;12.370;2023-04-24T11:27:41;4.15;;;0.65;;
71435;SDS011;59251;51.326;12.370;2023-04-24T11:30:08;3.60;;;0.70;;
71435;SDS011;59251;51.326;12.370;2023-04-24T11:32:39;3.47;;;0.55;;
71435;SDS011;59251;51.326;12.370;2023-04-24T11:37:43;3.53;;;0.60;;
71435;SDS011;59251;51.326;12.370;2023-04-24T11:40:16;4.28;;;0.68;;
71435;SDS011;59251;51.326;12.370;2023-04-24T11:42:44;4.00;;;0.60;;
71435;SDS011;59251;51.326;12.370;2023-04-24T11:45:17;4.55;;;0.80;;
71435;SDS011;59251;51.326;12.370;2023-04-24T11:47:44;3.27;;;0.63;;
71435;SDS011;59251;51.326;12.370;2023-04-24T11:50:13;4.32;;;0.70;;
71435;SDS011;59251;51.326;12.370;2023-04-24T11:52:41;5.32;;;0.65;;
71435;SDS011;59251;51.326;12.370;2023-04-24T11:55:12;4.22;;;0.80;;
71435;SDS011;59251;51.326;12.370;2023-04-24T11:57:52;3.17;;;0.57;;
71435;SDS011;59251;51.326;12.370;2023-04-24T12:00:20;3.63;;;0.60;;
71435;SDS011;59251;51.326;12.370;2023-04-24T12:02:46;3.80;;;0.52;;
71435;SDS011;59251;51.326;12.370;2023-04-24T12:05:25;3.65;;;0.70;;
71435;SDS011;59251;51.326;12.370;2023-04-24T12:07:51;3.70;;;0.70;;
71435;SDS011;59251;51.326;12.370;2023-04-24T12:10:20;4.10;;;0.70;;
71435;SDS011;59251;51.326;12.370;2023-04-24T12:12:50;2.92;;;0.43;;
71435;SDS011;59251;51.326;12.370;2023-04-24T12:15:17;3.83;;;0.70;;
71435;SDS011;59251;51.326;12.370;2023-04-24T12:17:44;4.90;;;0.80;;
71435;SDS011;59251;51.326;12.370;2023-04-24T12:20:10;5.00;;;0.77;;
71435;SDS011;59251;51.326;12.370;2023-04-24T12:22:58;6.55;;;1.00;;
71435;SDS011;59251;51.326;12.370;2023-04-24T12:25:24;4.07;;;0.60;;
71435;SDS011;59251;51.326;12.370;2023-04-24T12:27:55;4.68;;;0.80;;
71435;SDS011;59251;51.326;12.370;2023-04-24T12:30:48;5.85;;;0.75;;
71435;SDS011;59251;51.326;12.370;2023-04-24T12:33:17;4.47;;;0.73;;
71435;SDS011;59251;51.326;12.370;2023-04-24T12:35:44;5.38;;;1.00;;
71435;SDS011;59251;51.326;12.370;2023-04-24T12:38:11;4.75;;;0.88;;
71435;SDS011;59251;51.326;12.370;2023-04-24T12:40:38;5.67;;;0.80;;
71435;SDS011;59251;51.326;12.370;2023-04-24T12:43:12;6.22;;;0.90;;
71435;SDS011;59251;51.326;12.370;2023-04-24T12:45:42;5.55;;;0.95;;
71435;SDS011;59251;51.326;12.370;2023-04-24T12:48:08;4.57;;;0.70;;
71435;SDS011;59251;51.326;12.370;2023-04-24T12:50:33;4.40;;;1.00;;
71435;SDS011;59251;51.326;12.370;2023-04-24T12:52:59;5.10;;;0.83;;
71435;SDS011;59251;51.326;12.370;2023-04-24T12:55:24;4.93;;;1.00;;
71435;SDS011;59251;51.326;12.370;2023-04-24T12:57:50;4.73;;;1.10;;
71435;SDS011;59251;51.326;12.370;2023-04-24T13:00:15;4.93;;;0.90;;
71435;SDS011;59251;51.326;12.370;2023-04-24T13:02:41;5.43;;;0.80;;
71435;SDS011;59251;51.326;12.370;2023-04-24T13:05:06;4.10;;;0.80;;
71435;SDS011;59251;51.326;12.370;2023-04-24T13:07:32;3.95;;;0.80;;
71435;SDS011;59251;51.326;12.370;2023-04-24T13:09:57;4.87;;;1.10;;
71435;SDS011;59251;51.326;12.370;2023-04-24T13:12:23;3.80;;;0.70;;
71435;SDS011;59251;51.326;12.370;2023-04-24T13:14:51;4.93;;;0.98;;
71435;SDS011;59251;51.326;12.370;2023-04-24T13:17:17;5.30;;;1.10;;
71435;SDS011;59251;51.326;12.370;2023-04-24T13:19:43;6.67;;;1.03;;
71435;SDS011;59251;51.326;12.370;2023-04-24T13:22:10;4.35;;;0.82;;
71435;SDS011;59251;51.326;12.370;2023-04-24T13:24:36;5.90;;;0.80;;
71435;SDS011;59251;51.326;12.370;2023-04-24T13:27:02;4.43;;;0.80;;
71435;SDS011;59251;51.326;12.370;2023-04-24T13:29:28;4.25;;;0.80;;
71435;SDS011;59251;51.326;12.370;2023-04-24T13:31:54;5.33;;;1.10;;
71435;SDS011;59251;51.326;12.370;2023-04-24T13:34:20;4.72;;;0.90;;
71435;SDS011;59251;51.326;12.370;2023-04-24T13:36:46;4.20;;;0.90;;
71435;SDS011;59251;51.326;12.370;2023-04-24T13:39:12;5.73;;;0.90;;
71435;SDS011;59251;51.326;12.370;2023-04-24T13:41:37;5.28;;;0.90;;
71435;SDS011;59251;51.326;12.370;2023-04-24T13:44:03;4.90;;;0.90;;
71435;SDS011;59251;51.326;12.370;2023-04-24T13:46:29;4.07;;;0.88;;
71435;SDS011;59251;51.326;12.370;2023-04-24T13:48:55;4.27;;;0.80;;
71435;SDS011;59251;51.326;12.370;2023-04-24T13:51:20;4.83;;;0.70;;
71435;SDS011;59251;51.326;12.370;2023-04-24T13:53:45;4.50;;;0.83;;
71435;SDS011;59251;51.326;12.370;2023-04-24T13:56:11;4.47;;;0.80;;
71435;SDS011;59251;51.326;12.370;2023-04-24T13:58:37;5.67;;;1.10;;
71435;SDS011;59251;51.326;12.370;2023-04-24T14:01:03;6.05;;;0.80;;
71435;SDS011;59251;51.326;12.370;2023-04-24T14:03:28;5.30;;;0.80;;
71435;SDS011;59251;51.326;12.370;2023-04-24T14:05:54;5.25;;;1.02;;
71435;SDS011;59251;51.326;12.370;2023-04-24T14:08:20;3.70;;;0.70;;
71435;SDS011;59251;51.326;12.370;2023-04-24T14:10:45;4.40;;;0.60;;
71435;SDS011;59251;51.326;12.370;2023-04-24T14:13:10;3.95;;;0.50;;
71435;SDS011;59251;51.326;12.370;2023-04-24T14:15:36;4.40;;;0.60;;
71435;SDS011;59251;51.326;12.370;2023-04-24T14:18:02;4.90;;;0.60;;
71435;SDS011;59251;51.326;12.370;2023-04-24T14:20:28;3.10;;;0.50;;
71435;SDS011;59251;51.326;12.370;2023-04-24T14:22:53;3.07;;;0.40;;
71435;SDS011;59251;51.326;12.370;2023-04-24T14:25:18;3.65;;;0.50;;
71435;SDS011;59251;51.326;12.370;2023-04-24T14:27:44;3.33;;;0.50;;
71435;SDS011;59251;51.326;12.370;2023-04-24T14:30:10;3.25;;;0.50;;
71435;SDS011;59251;51.326;12.370;2023-04-24T14:32:37;4.97;;;0.70;;
71435;SDS011;59251;51.326;12.370;2023-04-24T14:35:04;3.63;;;0.52;;
71435;SDS011;59251;51.326;12.370;2023-04-24T14:37:30;3.70;;;0.50;;